createdAt,value
2022-09-17T00:01:45.487Z,1.40
2022-09-17T00:04:13.686Z,1.57
2022-09-17T00:06:41.913Z,1.95
2022-09-17T00:09:10.117Z,1.85
2022-09-17T00:11:39.776Z,2.08
2022-09-17T00:14:13.042Z,2.22
2022-09-17T00:16:42.779Z,1.77
2022-09-17T00:19:12.507Z,2.33
2022-09-17T00:21:42.711Z,1.80
2022-09-17T00:24:13.270Z,2.10
2022-09-17T00:26:41.932Z,2.33
2022-09-17T00:29:11.126Z,2.55
2022-09-17T00:31:40.477Z,2.35
2022-09-17T00:34:09.308Z,2.20
2022-09-17T00:36:39.503Z,2.20
2022-09-17T00:39:10.881Z,1.95
2022-09-17T00:41:40.081Z,2.33
2022-09-17T00:44:48.126Z,2.58
2022-09-17T00:47:22.517Z,2.50
2022-09-17T00:49:54.141Z,2.30
2022-09-17T00:52:31.677Z,2.08
2022-09-17T00:55:06.426Z,2.42
2022-09-17T00:57:36.305Z,2.37
2022-09-17T01:00:08.514Z,2.50
2022-09-17T01:02:37.417Z,2.40
2022-09-17T01:05:07.119Z,2.87
2022-09-17T01:07:41.677Z,2.22
2022-09-17T01:10:28.338Z,1.95
2022-09-17T01:13:20.421Z,2.12
2022-09-17T01:16:22.343Z,2.42
2022-09-17T01:19:10.026Z,2.25
2022-09-17T01:21:59.629Z,2.00
2022-09-17T01:24:37.028Z,2.10
2022-09-17T01:27:32.073Z,2.17
2022-09-17T01:30:18.322Z,2.37
2022-09-17T01:32:52.752Z,2.12
2022-09-17T01:35:24.356Z,2.75
2022-09-17T01:38:15.935Z,2.12
2022-09-17T01:40:47.557Z,1.95
2022-09-17T01:43:37.357Z,2.10
2022-09-17T01:46:15.033Z,2.30
2022-09-17T01:48:47.139Z,2.08
2022-09-17T01:51:27.516Z,2.42
2022-09-17T01:54:08.145Z,2.33
2022-09-17T01:56:42.650Z,2.58
2022-09-17T01:59:20.207Z,2.30
2022-09-17T02:01:51.977Z,2.27
2022-09-17T02:04:45.797Z,2.50
2022-09-17T02:07:19.044Z,2.55
2022-09-17T02:10:07.094Z,2.40
2022-09-17T02:12:38.725Z,1.92
2022-09-17T02:15:11.177Z,1.80
2022-09-17T02:18:13.389Z,2.00
2022-09-17T02:20:50.938Z,2.00
2022-09-17T02:23:25.028Z,2.25
2022-09-17T02:26:08.768Z,1.98
2022-09-17T02:29:01.414Z,2.25
2022-09-17T02:31:30.700Z,1.77
2022-09-17T02:34:02.716Z,1.98
2022-09-17T02:36:32.181Z,2.08
2022-09-17T02:39:02.755Z,2.15
2022-09-17T02:41:43.012Z,2.27
2022-09-17T02:44:23.207Z,2.08
2022-09-17T02:47:15.267Z,1.85
2022-09-17T02:50:12.568Z,1.82
2022-09-17T02:52:59.150Z,1.70
2022-09-17T02:55:53.025Z,1.92
2022-09-17T02:58:27.353Z,1.70
2022-09-17T03:00:59.074Z,2.20
2022-09-17T03:03:35.824Z,1.45
2022-09-17T03:06:05.419Z,1.77
2022-09-17T03:08:40.159Z,2.00
2022-09-17T03:11:12.689Z,2.10
2022-09-17T03:13:41.696Z,1.52
2022-09-17T03:16:10.447Z,1.60
2022-09-17T03:18:39.011Z,1.60
2022-09-17T03:21:07.636Z,1.72
2022-09-17T03:23:36.336Z,1.60
2022-09-17T03:26:05.045Z,1.60
2022-09-17T03:28:34.868Z,1.45
2022-09-17T03:31:04.163Z,1.80
2022-09-17T03:33:33.533Z,1.47
2022-09-17T03:36:02.318Z,1.57
2022-09-17T03:38:30.878Z,1.00
2022-09-17T03:41:05.094Z,1.32
2022-09-17T03:43:33.790Z,1.47
2022-09-17T03:46:02.433Z,1.55
2022-09-17T03:48:32.814Z,1.20
2022-09-17T03:51:01.357Z,1.35
2022-09-17T03:53:32.727Z,1.32
2022-09-17T03:56:03.104Z,1.20
2022-09-17T03:58:32.183Z,1.60
2022-09-17T04:01:00.787Z,1.20
2022-09-17T04:03:29.884Z,1.85
2022-09-17T04:06:17.785Z,1.57
2022-09-17T04:08:46.392Z,1.35
2022-09-17T04:11:34.447Z,1.72
2022-09-17T04:14:04.519Z,1.40
2022-09-17T04:16:33.133Z,1.80
2022-09-17T04:19:01.639Z,1.35
2022-09-17T04:21:30.853Z,1.57
2022-09-17T04:23:59.855Z,1.55
2022-09-17T04:26:28.395Z,1.55
2022-09-17T04:28:57.280Z,1.60
2022-09-17T04:31:27.147Z,1.60
2022-09-17T04:33:55.755Z,1.32
2022-09-17T04:36:24.300Z,1.40
2022-09-17T04:38:52.842Z,1.92
2022-09-17T04:41:21.386Z,1.72
2022-09-17T04:43:50.301Z,1.42
2022-09-17T04:46:18.959Z,1.70
2022-09-17T04:48:47.558Z,1.47
2022-09-17T04:51:16.108Z,1.75
2022-09-17T04:53:45.516Z,1.42
2022-09-17T04:56:14.164Z,1.42
2022-09-17T04:58:42.891Z,1.40
2022-09-17T05:01:11.496Z,1.07
2022-09-17T05:03:40.047Z,1.40
2022-09-17T05:06:08.534Z,1.50
2022-09-17T05:08:37.091Z,1.70
2022-09-17T05:11:05.780Z,1.77
2022-09-17T05:13:34.760Z,1.40
2022-09-17T05:16:03.603Z,1.37
2022-09-17T05:18:32.124Z,1.35
2022-09-17T05:21:00.727Z,1.30
2022-09-17T05:23:29.264Z,1.15
2022-09-17T05:26:22.293Z,1.60
2022-09-17T05:28:50.856Z,1.07
2022-09-17T05:31:19.408Z,1.85
2022-09-17T05:33:47.934Z,1.17
2022-09-17T05:36:16.478Z,1.37
2022-09-17T05:38:45.026Z,1.37
2022-09-17T05:41:13.568Z,1.32
2022-09-17T05:43:44.027Z,1.30
2022-09-17T05:46:12.595Z,1.72
2022-09-17T05:48:41.165Z,1.22
2022-09-17T05:51:09.845Z,1.30
2022-09-17T05:53:38.620Z,1.42
2022-09-17T05:56:07.170Z,1.40
2022-09-17T05:58:35.945Z,1.10
2022-09-17T06:01:04.571Z,1.20
2022-09-17T06:03:33.291Z,1.52
2022-09-17T06:06:02.122Z,1.17
2022-09-17T06:08:31.336Z,1.10
2022-09-17T06:11:02.616Z,1.20
2022-09-17T06:13:31.338Z,1.05
2022-09-17T06:16:00.255Z,1.47
2022-09-17T06:18:32.588Z,1.05
2022-09-17T06:21:23.137Z,1.20
2022-09-17T06:23:52.494Z,1.20
2022-09-17T06:26:21.080Z,1.30
2022-09-17T06:28:49.785Z,1.25
2022-09-17T06:31:18.530Z,1.00
2022-09-17T06:33:48.324Z,1.40
2022-09-17T06:36:16.913Z,1.20
2022-09-17T06:38:46.177Z,1.52
2022-09-17T06:41:16.555Z,1.12
2022-09-17T06:43:45.288Z,1.22
2022-09-17T06:46:13.877Z,1.45
2022-09-17T06:48:42.393Z,1.60
2022-09-17T06:51:12.192Z,1.65
2022-09-17T06:53:41.297Z,1.00
2022-09-17T06:56:10.711Z,1.27
2022-09-17T06:58:41.318Z,1.62
2022-09-17T07:01:11.902Z,1.47
2022-09-17T07:03:42.932Z,1.40
2022-09-17T07:06:12.635Z,1.10
2022-09-17T07:08:41.663Z,1.32
2022-09-17T07:11:10.357Z,1.37
2022-09-17T07:13:38.972Z,1.22
2022-09-17T07:16:07.867Z,1.20
2022-09-17T07:18:36.952Z,1.07
2022-09-17T07:21:07.049Z,1.30
2022-09-17T07:23:38.520Z,1.32
2022-09-17T07:26:10.224Z,1.37
2022-09-17T07:28:40.615Z,1.32
2022-09-17T07:31:15.836Z,1.40
2022-09-17T07:33:42.579Z,1.47
2022-09-17T07:36:18.865Z,1.22
2022-09-17T07:38:47.425Z,1.27
2022-09-17T07:41:18.108Z,1.40
2022-09-17T07:43:47.416Z,1.60
2022-09-17T07:46:20.159Z,1.40
2022-09-17T07:51:22.395Z,1.07
2022-09-17T07:53:55.880Z,1.32
2022-09-17T07:56:25.180Z,1.10
2022-09-17T07:58:54.233Z,1.50
2022-09-17T08:01:23.050Z,1.47
2022-09-17T08:03:58.150Z,1.02
2022-09-17T08:06:28.582Z,1.10
2022-09-17T08:08:58.465Z,0.80
2022-09-17T08:11:54.402Z,1.10
2022-09-17T08:16:28.655Z,1.15
2022-09-17T08:18:58.415Z,1.20
2022-09-17T08:21:26.946Z,1.20
2022-09-17T08:23:55.615Z,1.45
2022-09-17T08:26:25.399Z,1.10
2022-09-17T08:28:56.493Z,1.20
2022-09-17T08:31:28.518Z,1.30
2022-09-17T08:33:57.895Z,0.90
2022-09-17T08:36:27.360Z,2.12
2022-09-17T08:38:58.550Z,1.17
2022-09-17T08:41:48.913Z,1.12
2022-09-17T08:44:29.641Z,1.10
2022-09-17T08:47:05.666Z,1.20
2022-09-17T10:27:48.027Z,0.90
2022-09-17T10:30:29.050Z,0.80
2022-09-17T10:33:23.265Z,0.78
2022-09-17T10:43:14.419Z,0.60
2022-09-17T10:45:49.351Z,0.88
2022-09-17T10:48:43.063Z,0.65
2022-09-17T10:54:06.630Z,1.02
2022-09-17T10:56:49.499Z,0.70
2022-09-17T11:02:45.836Z,0.90
2022-09-17T11:08:41.502Z,0.88
2022-09-17T11:11:19.237Z,0.80
2022-09-17T11:13:53.881Z,0.72
2022-09-17T11:16:49.618Z,0.50
2022-09-17T11:20:03.006Z,0.55
2022-09-17T11:25:42.214Z,0.50
2022-09-17T11:28:28.666Z,1.00
2022-09-17T11:31:23.267Z,0.80
2022-09-17T11:34:05.793Z,1.00
2022-09-17T11:37:15.984Z,1.20
2022-09-17T11:39:50.177Z,0.93
2022-09-17T11:42:42.090Z,0.72
2022-09-17T11:45:38.239Z,0.50
2022-09-17T11:48:23.651Z,2.22
2022-09-17T11:50:59.931Z,1.02
2022-09-17T11:53:34.222Z,0.55
2022-09-17T11:56:07.602Z,0.90
2022-09-17T11:58:50.853Z,0.70
2022-09-17T12:01:52.168Z,0.40
2022-09-17T12:04:52.591Z,0.50
2022-09-17T12:07:32.592Z,0.53
2022-09-17T12:10:35.473Z,0.50
2022-09-17T12:13:16.324Z,0.60
2022-09-17T12:15:52.914Z,1.00
2022-09-17T12:32:03.875Z,0.85
2022-09-17T12:37:37.256Z,0.60
2022-09-17T12:40:31.857Z,0.50
2022-09-17T12:43:23.006Z,0.50
2022-09-17T12:46:03.027Z,0.60
2022-09-17T12:48:42.109Z,0.80
2022-09-17T12:51:19.540Z,0.90
2022-09-17T12:53:57.973Z,1.40
2022-09-17T12:56:45.858Z,1.25
2022-09-17T12:59:15.841Z,0.60
2022-09-17T13:01:48.528Z,0.47
2022-09-17T13:06:56.439Z,0.60
2022-09-17T13:09:35.160Z,0.50
2022-09-17T13:12:04.951Z,0.30
2022-09-17T13:14:46.556Z,0.35
2022-09-17T13:17:32.902Z,0.50
2022-09-17T13:20:02.693Z,0.40
2022-09-17T13:22:33.260Z,0.88
2022-09-17T13:25:03.019Z,0.72
2022-09-17T13:27:31.690Z,0.50
2022-09-17T13:30:00.489Z,0.65
2022-09-17T13:32:36.440Z,0.60
2022-09-17T13:35:11.278Z,0.50
2022-09-17T13:37:41.081Z,0.53
2022-09-17T13:40:22.990Z,0.57
2022-09-17T13:43:06.519Z,0.30
2022-09-17T13:45:36.063Z,0.53
2022-09-17T13:48:05.605Z,0.62
2022-09-17T13:50:37.772Z,0.50
2022-09-17T14:00:49.678Z,0.42
2022-09-17T14:03:31.180Z,0.70
2022-09-17T14:06:01.206Z,0.95
2022-09-17T14:08:38.787Z,0.72
2022-09-17T14:11:08.530Z,0.60
2022-09-17T14:13:38.739Z,0.70
2022-09-17T14:16:26.624Z,0.70
2022-09-17T14:18:59.897Z,0.88
2022-09-17T14:21:32.964Z,0.80
2022-09-17T14:24:05.836Z,0.85
2022-09-17T14:29:12.470Z,0.90
2022-09-17T14:31:48.723Z,0.80
2022-09-17T14:37:18.635Z,0.90
2022-09-17T14:40:01.136Z,0.70
2022-09-17T14:48:30.238Z,1.00
2022-09-17T14:51:23.313Z,0.90
2022-09-17T14:57:10.879Z,1.00
2022-09-17T14:59:43.286Z,0.82
2022-09-17T15:02:39.451Z,0.80
2022-09-17T15:05:31.664Z,1.00
2022-09-17T15:08:11.401Z,1.25
2022-09-17T15:16:38.249Z,0.72
2022-09-17T15:19:13.329Z,0.82
2022-09-17T15:22:04.303Z,0.90
2022-09-17T15:24:49.875Z,1.45
2022-09-17T15:27:34.346Z,0.80
2022-09-17T15:30:00.114Z,1.20
2022-09-17T15:32:31.095Z,1.25
2022-09-17T15:38:21.708Z,0.75
2022-09-17T15:40:41.286Z,0.80
2022-09-17T15:46:36.086Z,1.05
2022-09-17T15:49:00.043Z,1.10
2022-09-17T15:54:40.092Z,0.72
2022-09-17T15:57:36.988Z,0.80
2022-09-17T16:00:26.148Z,0.90
2022-09-17T16:03:05.089Z,1.05
2022-09-17T16:06:04.758Z,0.70
2022-09-17T16:14:00.488Z,0.98
2022-09-17T16:17:01.125Z,1.42
2022-09-17T16:19:39.098Z,0.90
2022-09-17T16:25:31.171Z,1.45
2022-09-17T16:28:23.251Z,1.20
2022-09-17T16:33:39.393Z,1.00
2022-09-17T16:36:07.824Z,0.90
2022-09-17T16:38:48.597Z,1.50
2022-09-17T16:41:28.901Z,1.00
2022-09-17T16:47:13.064Z,1.27
2022-09-17T16:52:22.189Z,0.82
2022-09-17T16:55:01.552Z,1.02
2022-09-17T16:57:31.670Z,1.00
2022-09-17T17:00:00.055Z,1.20
2022-09-17T17:02:36.651Z,1.30
2022-09-17T17:05:25.846Z,1.10
2022-09-17T17:07:55.794Z,1.20
2022-09-17T17:10:29.544Z,0.90
2022-09-17T17:13:02.598Z,1.00
2022-09-17T17:15:36.483Z,1.20
2022-09-17T17:18:06.745Z,1.47
2022-09-17T17:20:43.010Z,1.17
2022-09-17T17:23:11.477Z,0.70
2022-09-17T17:25:42.751Z,1.20
2022-09-17T17:28:12.769Z,1.02
2022-09-17T17:30:41.091Z,1.30
2022-09-17T17:33:14.605Z,0.90
2022-09-17T17:35:45.318Z,1.30
2022-09-17T17:38:17.298Z,1.10
2022-09-17T17:41:07.936Z,1.20
2022-09-17T17:43:42.011Z,1.25
2022-09-17T17:46:18.677Z,0.90
2022-09-17T17:48:48.558Z,1.27
2022-09-17T17:51:26.313Z,1.25
2022-09-17T17:53:54.638Z,1.22
2022-09-17T17:56:23.497Z,1.15
2022-09-17T17:58:56.519Z,1.30
2022-09-17T18:01:51.697Z,1.40
2022-09-17T18:04:21.851Z,1.35
2022-09-17T18:06:54.728Z,1.55
2022-09-17T18:09:28.182Z,1.05
2022-09-17T18:11:56.659Z,1.27
2022-09-17T18:14:41.448Z,0.88
2022-09-17T18:17:10.317Z,1.10
2022-09-17T18:19:43.985Z,1.45
2022-09-17T18:22:21.941Z,1.25
2022-09-17T18:24:47.985Z,1.87
2022-09-17T18:27:39.799Z,1.20
2022-09-17T18:30:09.717Z,1.52
2022-09-17T18:35:12.415Z,1.37
2022-09-17T18:37:46.207Z,1.40
2022-09-17T18:40:21.406Z,1.27
2022-09-17T18:43:17.181Z,1.25
2022-09-17T18:46:07.851Z,1.52
2022-09-17T18:48:36.631Z,1.30
2022-09-17T18:56:31.848Z,1.55
2022-09-17T18:59:07.734Z,1.37
2022-09-17T19:01:39.258Z,1.47
2022-09-17T19:04:04.414Z,1.50
2022-09-17T19:06:45.885Z,1.50
2022-09-17T19:09:17.228Z,1.60
2022-09-17T19:11:49.414Z,1.50
2022-09-17T19:14:24.381Z,1.70
2022-09-17T19:17:05.143Z,1.20
2022-09-17T19:19:40.038Z,1.57
2022-09-17T19:22:10.620Z,1.30
2022-09-17T19:24:44.978Z,1.65
2022-09-17T19:27:18.556Z,1.60
2022-09-17T19:30:10.994Z,1.40
2022-09-17T19:33:11.493Z,1.20
2022-09-17T19:36:03.173Z,1.30
2022-09-17T19:38:33.096Z,1.20
2022-09-17T19:41:09.684Z,1.70
2022-09-17T19:43:41.254Z,1.42
2022-09-17T19:46:13.739Z,1.40
2022-09-17T19:48:51.913Z,1.12
2022-09-17T19:51:20.799Z,1.02
2022-09-17T19:53:49.088Z,1.40
2022-09-17T19:56:18.663Z,1.10
2022-09-17T19:59:19.987Z,1.10
2022-09-17T20:01:58.341Z,1.00
2022-09-17T20:04:34.612Z,1.25
2022-09-17T20:07:04.444Z,1.02
2022-09-17T20:09:34.249Z,1.20
2022-09-17T20:12:04.192Z,0.80
2022-09-17T20:14:39.766Z,0.90
2022-09-17T20:17:08.524Z,1.40
2022-09-17T20:19:40.928Z,0.90
2022-09-17T20:22:27.145Z,0.95
2022-09-17T20:25:11.553Z,1.10
2022-09-17T20:27:52.083Z,1.20
2022-09-17T20:30:23.337Z,0.88
2022-09-17T20:32:56.506Z,0.75
2022-09-17T20:35:29.523Z,0.95
2022-09-17T20:40:28.043Z,0.90
2022-09-17T20:42:56.765Z,1.00
2022-09-17T20:45:25.438Z,1.10
2022-09-17T20:47:54.290Z,0.95
2022-09-17T20:50:37.862Z,0.95
2022-09-17T20:52:57.602Z,1.12
2022-09-17T20:55:30.026Z,1.05
2022-09-17T20:57:57.551Z,1.00
2022-09-17T21:00:33.454Z,0.95
2022-09-17T21:03:11.305Z,0.90
2022-09-17T21:05:39.986Z,0.98
2022-09-17T21:08:19.209Z,1.10
2022-09-17T21:10:52.987Z,1.12
2022-09-17T21:13:32.497Z,1.10
2022-09-17T21:16:08.030Z,1.07
2022-09-17T21:18:39.913Z,0.93
2022-09-17T21:21:10.522Z,1.07
2022-09-17T21:23:53.061Z,1.05
2022-09-17T21:26:37.432Z,1.20
2022-09-17T21:29:07.036Z,1.00
2022-09-17T21:31:41.064Z,1.00
2022-09-17T21:34:18.262Z,1.00
2022-09-17T21:36:48.454Z,1.00
2022-09-17T21:39:39.274Z,4.45
2022-09-17T21:42:07.978Z,1.25
2022-09-17T21:44:47.337Z,1.00
2022-09-17T21:47:42.485Z,0.80
2022-09-17T21:50:19.626Z,0.98
2022-09-17T21:52:46.130Z,1.17
2022-09-17T21:55:14.157Z,1.17
2022-09-17T21:57:44.364Z,0.88
2022-09-17T22:00:12.725Z,0.82
2022-09-17T22:02:45.574Z,1.20
2022-09-17T22:05:24.186Z,1.10
2022-09-17T22:07:48.159Z,0.98
2022-09-17T22:10:17.924Z,0.90
2022-09-17T22:12:48.864Z,0.95
2022-09-17T22:15:18.870Z,0.82
2022-09-17T22:17:51.387Z,1.20
2022-09-17T22:20:21.164Z,1.10
2022-09-17T22:22:49.643Z,0.90
2022-09-17T22:25:17.839Z,1.00
2022-09-17T22:28:10.041Z,0.90
2022-09-17T22:30:19.567Z,0.80
2022-09-17T22:32:49.577Z,0.98
2022-09-17T22:35:20.603Z,0.90
2022-09-17T22:37:50.646Z,1.00
2022-09-17T22:40:19.047Z,0.85
2022-09-17T22:42:47.383Z,1.00
2022-09-17T22:45:19.648Z,0.93
2022-09-17T22:47:50.954Z,0.93
2022-09-17T22:50:19.578Z,1.60
2022-09-17T22:53:08.645Z,1.17
2022-09-17T22:55:38.521Z,1.80
2022-09-17T22:58:06.906Z,1.80
2022-09-17T23:00:35.325Z,1.20
2022-09-17T23:03:03.682Z,1.22
2022-09-17T23:05:31.994Z,1.40
2022-09-17T23:08:01.753Z,1.45
2022-09-17T23:10:31.687Z,1.50
2022-09-17T23:12:59.936Z,1.70
2022-09-17T23:15:28.682Z,1.70
2022-09-17T23:17:57.001Z,1.40
2022-09-17T23:20:25.302Z,1.50
2022-09-17T23:22:53.504Z,1.90
2022-09-17T23:25:21.711Z,2.10
2022-09-17T23:27:49.932Z,1.65
2022-09-17T23:30:18.206Z,1.70
2022-09-17T23:32:46.449Z,1.65
2022-09-17T23:35:36.266Z,1.40
2022-09-17T23:38:04.541Z,1.80
2022-09-17T23:40:37.537Z,1.77
2022-09-17T23:43:02.853Z,1.50
2022-09-17T23:45:31.091Z,2.10
2022-09-17T23:47:59.476Z,1.62
2022-09-17T23:50:27.687Z,1.20
2022-09-17T23:52:55.910Z,1.50
2022-09-17T23:55:24.273Z,1.30
2022-09-17T23:57:52.512Z,1.60
